sensor_id;sensor_type;location;lat;lon;timestamp;temperature;humidity
582;DHT22;277;50.074;8.436;2022-12-04T00:01:27;2.40;99.90
582;DHT22;277;50.074;8.436;2022-12-04T00:03:55;2.40;99.90
582;DHT22;277;50.074;8.436;2022-12-04T00:06:23;2.40;99.90
582;DHT22;277;50.074;8.436;2022-12-04T00:08:52;2.40;99.90
582;DHT22;277;50.074;8.436;2022-12-04T00:11:20;2.40;99.90
582;DHT22;277;50.074;8.436;2022-12-04T00:13:48;2.40;99.90
582;DHT22;277;50.074;8.436;2022-12-04T00:16:17;2.40;99.90
582;DHT22;277;50.074;8.436;2022-12-04T00:18:46;2.40;99.90
582;DHT22;277;50.074;8.436;2022-12-04T00:21:14;2.60;99.90
582;DHT22;277;50.074;8.436;2022-12-04T00:23:42;2.50;99.90
582;DHT22;277;50.074;8.436;2022-12-04T00:26:11;2.60;99.90
582;DHT22;277;50.074;8.436;2022-12-04T00:28:39;2.60;99.90
582;DHT22;277;50.074;8.436;2022-12-04T00:31:09;2.70;99.90
582;DHT22;277;50.074;8.436;2022-12-04T00:33:37;2.60;99.90
582;DHT22;277;50.074;8.436;2022-12-04T00:36:07;2.50;99.90
582;DHT22;277;50.074;8.436;2022-12-04T00:38:35;2.40;99.90
582;DHT22;277;50.074;8.436;2022-12-04T00:41:03;2.50;99.90
582;DHT22;277;50.074;8.436;2022-12-04T00:43:31;2.40;99.90
582;DHT22;277;50.074;8.436;2022-12-04T00:45:59;2.40;99.90
582;DHT22;277;50.074;8.436;2022-12-04T00:48:27;2.30;99.90
582;DHT22;277;50.074;8.436;2022-12-04T00:50:54;2.30;99.90
582;DHT22;277;50.074;8.436;2022-12-04T00:53:25;2.40;99.90
582;DHT22;277;50.074;8.436;2022-12-04T00:55:53;2.30;99.90
582;DHT22;277;50.074;8.436;2022-12-04T00:58:21;2.30;99.90
582;DHT22;277;50.074;8.436;2022-12-04T01:00:48;2.30;99.90
582;DHT22;277;50.074;8.436;2022-12-04T01:03:16;2.40;99.90
582;DHT22;277;50.074;8.436;2022-12-04T01:05:44;2.40;99.90
582;DHT22;277;50.074;8.436;2022-12-04T01:08:12;2.50;99.90
582;DHT22;277;50.074;8.436;2022-12-04T01:10:41;2.60;99.90
582;DHT22;277;50.074;8.436;2022-12-04T01:13:25;2.50;99.90
582;DHT22;277;50.074;8.436;2022-12-04T01:15:53;2.40;99.90
582;DHT22;277;50.074;8.436;2022-12-04T01:18:20;2.40;99.90
582;DHT22;277;50.074;8.436;2022-12-04T01:20:48;2.40;99.90
582;DHT22;277;50.074;8.436;2022-12-04T01:23:17;2.40;99.90
582;DHT22;277;50.074;8.436;2022-12-04T01:25:50;2.40;99.90
582;DHT22;277;50.074;8.436;2022-12-04T01:28:18;2.40;99.90
582;DHT22;277;50.074;8.436;2022-12-04T01:30:55;2.40;99.90
582;DHT22;277;50.074;8.436;2022-12-04T01:33:23;2.40;99.90
582;DHT22;277;50.074;8.436;2022-12-04T01:35:51;2.50;99.90
582;DHT22;277;50.074;8.436;2022-12-04T01:38:19;2.40;99.90
582;DHT22;277;50.074;8.436;2022-12-04T01:40:46;2.40;99.90
582;DHT22;277;50.074;8.436;2022-12-04T01:43:16;2.30;99.90
582;DHT22;277;50.074;8.436;2022-12-04T01:45:44;2.20;99.90
582;DHT22;277;50.074;8.436;2022-12-04T01:48:15;2.30;99.90
582;DHT22;277;50.074;8.436;2022-12-04T01:50:45;2.30;99.90
582;DHT22;277;50.074;8.436;2022-12-04T01:53:16;2.30;99.90
582;DHT22;277;50.074;8.436;2022-12-04T01:55:44;2.30;99.90
582;DHT22;277;50.074;8.436;2022-12-04T01:58:12;2.30;99.90
582;DHT22;277;50.074;8.436;2022-12-04T02:00:43;2.30;99.90
582;DHT22;277;50.074;8.436;2022-12-04T02:03:17;2.50;99.90
582;DHT22;277;50.074;8.436;2022-12-04T02:05:45;2.40;99.90
582;DHT22;277;50.074;8.436;2022-12-04T02:08:12;2.40;99.90
582;DHT22;277;50.074;8.436;2022-12-04T02:10:41;2.40;99.90
582;DHT22;277;50.074;8.436;2022-12-04T02:13:13;2.40;99.90
582;DHT22;277;50.074;8.436;2022-12-04T02:15:47;2.50;99.90
582;DHT22;277;50.074;8.436;2022-12-04T02:18:17;2.60;99.90
582;DHT22;277;50.074;8.436;2022-12-04T02:20:48;2.90;99.90
582;DHT22;277;50.074;8.436;2022-12-04T02:23:24;2.70;99.90
582;DHT22;277;50.074;8.436;2022-12-04T02:25:58;2.70;99.90
582;DHT22;277;50.074;8.436;2022-12-04T02:28:30;2.80;99.90
582;DHT22;277;50.074;8.436;2022-12-04T02:31:00;2.80;99.90
582;DHT22;277;50.074;8.436;2022-12-04T02:33:31;2.60;99.90
582;DHT22;277;50.074;8.436;2022-12-04T02:36:01;2.50;99.90
582;DHT22;277;50.074;8.436;2022-12-04T02:38:32;2.50;99.90
582;DHT22;277;50.074;8.436;2022-12-04T02:41:03;2.50;99.90
582;DHT22;277;50.074;8.436;2022-12-04T02:43:34;2.40;99.90
582;DHT22;277;50.074;8.436;2022-12-04T02:46:04;2.40;99.90
582;DHT22;277;50.074;8.436;2022-12-04T02:48:34;2.50;99.90
582;DHT22;277;50.074;8.436;2022-12-04T02:51:02;2.40;99.90
582;DHT22;277;50.074;8.436;2022-12-04T02:53:32;2.40;99.90
582;DHT22;277;50.074;8.436;2022-12-04T02:56:01;2.30;99.90
582;DHT22;277;50.074;8.436;2022-12-04T02:58:32;2.30;99.90
582;DHT22;277;50.074;8.436;2022-12-04T03:01:04;2.30;99.90
582;DHT22;277;50.074;8.436;2022-12-04T03:03:45;2.30;99.90
582;DHT22;277;50.074;8.436;2022-12-04T03:06:16;2.40;99.90
582;DHT22;277;50.074;8.436;2022-12-04T03:08:45;2.40;99.90
582;DHT22;277;50.074;8.436;2022-12-04T03:11:14;2.50;99.90
582;DHT22;277;50.074;8.436;2022-12-04T03:13:43;2.40;99.90
582;DHT22;277;50.074;8.436;2022-12-04T03:16:13;2.50;99.90
582;DHT22;277;50.074;8.436;2022-12-04T03:18:42;2.50;99.90
582;DHT22;277;50.074;8.436;2022-12-04T03:21:13;2.50;99.90
582;DHT22;277;50.074;8.436;2022-12-04T03:23:43;2.50;99.90
582;DHT22;277;50.074;8.436;2022-12-04T03:26:13;2.50;99.90
582;DHT22;277;50.074;8.436;2022-12-04T03:28:44;2.40;99.90
582;DHT22;277;50.074;8.436;2022-12-04T03:31:14;2.40;99.90
582;DHT22;277;50.074;8.436;2022-12-04T03:33:45;2.50;99.90
582;DHT22;277;50.074;8.436;2022-12-04T03:36:15;2.70;99.90
582;DHT22;277;50.074;8.436;2022-12-04T03:38:45;2.60;99.90
582;DHT22;277;50.074;8.436;2022-12-04T03:41:16;2.60;99.90
582;DHT22;277;50.074;8.436;2022-12-04T03:43:46;2.70;99.90
582;DHT22;277;50.074;8.436;2022-12-04T03:46:16;2.60;99.90
582;DHT22;277;50.074;8.436;2022-12-04T03:48:49;2.60;99.90
582;DHT22;277;50.074;8.436;2022-12-04T03:51:20;2.40;99.90
582;DHT22;277;50.074;8.436;2022-12-04T03:53:49;2.40;99.90
582;DHT22;277;50.074;8.436;2022-12-04T03:56:20;2.40;99.90
582;DHT22;277;50.074;8.436;2022-12-04T03:58:49;2.50;99.90
582;DHT22;277;50.074;8.436;2022-12-04T04:01:20;2.50;99.90
582;DHT22;277;50.074;8.436;2022-12-04T04:03:50;2.50;99.90
582;DHT22;277;50.074;8.436;2022-12-04T04:06:19;2.50;99.90
582;DHT22;277;50.074;8.436;2022-12-04T04:08:51;2.40;99.90
582;DHT22;277;50.074;8.436;2022-12-04T04:11:20;2.40;99.90
582;DHT22;277;50.074;8.436;2022-12-04T04:13:51;2.50;99.90
582;DHT22;277;50.074;8.436;2022-12-04T04:16:48;2.40;99.90
582;DHT22;277;50.074;8.436;2022-12-04T04:19:35;2.30;99.90
582;DHT22;277;50.074;8.436;2022-12-04T04:22:22;2.30;99.90
582;DHT22;277;50.074;8.436;2022-12-04T04:25:09;2.30;99.90
582;DHT22;277;50.074;8.436;2022-12-04T04:27:37;2.40;99.90
582;DHT22;277;50.074;8.436;2022-12-04T04:30:06;2.40;99.90
582;DHT22;277;50.074;8.436;2022-12-04T04:32:37;2.50;99.90
582;DHT22;277;50.074;8.436;2022-12-04T04:35:10;2.60;99.90
582;DHT22;277;50.074;8.436;2022-12-04T04:37:39;2.50;99.90
582;DHT22;277;50.074;8.436;2022-12-04T04:40:13;2.60;99.90
582;DHT22;277;50.074;8.436;2022-12-04T04:42:44;2.50;99.90
582;DHT22;277;50.074;8.436;2022-12-04T04:45:16;2.50;99.90
582;DHT22;277;50.074;8.436;2022-12-04T04:47:47;2.50;99.90
582;DHT22;277;50.074;8.436;2022-12-04T04:50:16;2.50;99.90
582;DHT22;277;50.074;8.436;2022-12-04T04:52:46;2.40;99.90
582;DHT22;277;50.074;8.436;2022-12-04T04:55:15;2.50;99.90
582;DHT22;277;50.074;8.436;2022-12-04T04:57:43;2.40;99.90
582;DHT22;277;50.074;8.436;2022-12-04T05:00:12;2.40;99.90
582;DHT22;277;50.074;8.436;2022-12-04T05:02:40;2.30;99.90
582;DHT22;277;50.074;8.436;2022-12-04T05:05:10;2.40;99.90
582;DHT22;277;50.074;8.436;2022-12-04T05:07:38;2.30;99.90
582;DHT22;277;50.074;8.436;2022-12-04T05:10:07;2.30;99.90
582;DHT22;277;50.074;8.436;2022-12-04T05:12:35;2.50;99.90
582;DHT22;277;50.074;8.436;2022-12-04T05:15:03;2.40;99.90
582;DHT22;277;50.074;8.436;2022-12-04T05:17:33;2.40;99.90
582;DHT22;277;50.074;8.436;2022-12-04T05:20:01;2.40;99.90
582;DHT22;277;50.074;8.436;2022-12-04T05:22:29;2.30;99.90
582;DHT22;277;50.074;8.436;2022-12-04T05:24:57;2.30;99.90
582;DHT22;277;50.074;8.436;2022-12-04T05:27:26;2.30;99.90
582;DHT22;277;50.074;8.436;2022-12-04T05:29:54;2.30;99.90
582;DHT22;277;50.074;8.436;2022-12-04T05:32:23;2.30;99.90
582;DHT22;277;50.074;8.436;2022-12-04T05:34:51;2.30;99.90
582;DHT22;277;50.074;8.436;2022-12-04T05:37:19;2.20;99.90
582;DHT22;277;50.074;8.436;2022-12-04T05:39:48;2.30;99.90
582;DHT22;277;50.074;8.436;2022-12-04T05:42:16;2.30;99.90
582;DHT22;277;50.074;8.436;2022-12-04T05:44:44;2.20;99.90
582;DHT22;277;50.074;8.436;2022-12-04T05:47:11;2.20;99.90
582;DHT22;277;50.074;8.436;2022-12-04T05:49:39;2.20;99.90
582;DHT22;277;50.074;8.436;2022-12-04T05:52:07;2.20;99.90
582;DHT22;277;50.074;8.436;2022-12-04T05:54:36;2.40;99.90
582;DHT22;277;50.074;8.436;2022-12-04T05:57:05;2.40;99.90
582;DHT22;277;50.074;8.436;2022-12-04T05:59:33;2.40;99.90
582;DHT22;277;50.074;8.436;2022-12-04T06:02:00;2.50;99.90
582;DHT22;277;50.074;8.436;2022-12-04T06:04:28;2.40;99.90
582;DHT22;277;50.074;8.436;2022-12-04T06:06:56;2.30;99.90
582;DHT22;277;50.074;8.436;2022-12-04T06:09:24;2.30;99.90
582;DHT22;277;50.074;8.436;2022-12-04T06:11:55;2.30;99.90
582;DHT22;277;50.074;8.436;2022-12-04T06:14:24;2.40;99.90
582;DHT22;277;50.074;8.436;2022-12-04T06:16:52;2.60;99.90
582;DHT22;277;50.074;8.436;2022-12-04T06:19:20;2.60;99.90
582;DHT22;277;50.074;8.436;2022-12-04T06:21:49;2.50;99.90
582;DHT22;277;50.074;8.436;2022-12-04T06:24:18;2.50;99.90
582;DHT22;277;50.074;8.436;2022-12-04T06:26:47;2.40;99.90
582;DHT22;277;50.074;8.436;2022-12-04T06:29:36;2.40;99.90
582;DHT22;277;50.074;8.436;2022-12-04T06:32:04;2.30;99.90
582;DHT22;277;50.074;8.436;2022-12-04T06:34:32;2.30;99.90
582;DHT22;277;50.074;8.436;2022-12-04T06:37:01;2.30;99.90
582;DHT22;277;50.074;8.436;2022-12-04T06:39:28;2.30;99.90
582;DHT22;277;50.074;8.436;2022-12-04T06:41:56;2.50;99.90
582;DHT22;277;50.074;8.436;2022-12-04T06:44:24;2.40;99.90
582;DHT22;277;50.074;8.436;2022-12-04T06:46:53;2.40;99.90
582;DHT22;277;50.074;8.436;2022-12-04T06:49:20;2.30;99.90
582;DHT22;277;50.074;8.436;2022-12-04T06:51:48;2.30;99.90
582;DHT22;277;50.074;8.436;2022-12-04T06:54:16;2.30;99.90
582;DHT22;277;50.074;8.436;2022-12-04T06:56:43;2.30;99.90
582;DHT22;277;50.074;8.436;2022-12-04T06:59:11;2.20;99.90
582;DHT22;277;50.074;8.436;2022-12-04T07:01:39;2.30;99.90
582;DHT22;277;50.074;8.436;2022-12-04T07:04:08;2.30;99.90
582;DHT22;277;50.074;8.436;2022-12-04T07:06:37;2.50;99.90
582;DHT22;277;50.074;8.436;2022-12-04T07:09:05;2.50;99.90
582;DHT22;277;50.074;8.436;2022-12-04T07:11:35;2.60;99.90
582;DHT22;277;50.074;8.436;2022-12-04T07:14:03;2.60;99.90
582;DHT22;277;50.074;8.436;2022-12-04T07:16:31;2.50;99.90
582;DHT22;277;50.074;8.436;2022-12-04T07:19:06;2.40;99.90
582;DHT22;277;50.074;8.436;2022-12-04T07:21:35;2.40;99.90
582;DHT22;277;50.074;8.436;2022-12-04T07:24:03;2.30;99.90
582;DHT22;277;50.074;8.436;2022-12-04T07:26:31;2.30;99.90
582;DHT22;277;50.074;8.436;2022-12-04T07:28:59;2.30;99.90
582;DHT22;277;50.074;8.436;2022-12-04T07:31:27;2.30;99.90
582;DHT22;277;50.074;8.436;2022-12-04T07:33:56;2.30;99.90
582;DHT22;277;50.074;8.436;2022-12-04T07:36:24;2.30;99.90
582;DHT22;277;50.074;8.436;2022-12-04T07:38:54;2.30;99.90
582;DHT22;277;50.074;8.436;2022-12-04T07:41:22;2.40;99.90
582;DHT22;277;50.074;8.436;2022-12-04T07:43:50;2.40;99.90
582;DHT22;277;50.074;8.436;2022-12-04T07:46:19;2.40;99.90
582;DHT22;277;50.074;8.436;2022-12-04T07:48:47;2.40;99.90
582;DHT22;277;50.074;8.436;2022-12-04T07:51:15;2.50;99.90
582;DHT22;277;50.074;8.436;2022-12-04T07:53:43;2.50;99.90
582;DHT22;277;50.074;8.436;2022-12-04T07:56:12;2.50;99.90
582;DHT22;277;50.074;8.436;2022-12-04T07:58:40;2.50;99.90
582;DHT22;277;50.074;8.436;2022-12-04T08:01:09;2.50;99.90
582;DHT22;277;50.074;8.436;2022-12-04T08:03:38;2.50;99.90
582;DHT22;277;50.074;8.436;2022-12-04T08:06:13;2.60;99.90
582;DHT22;277;50.074;8.436;2022-12-04T08:08:41;2.50;99.90
582;DHT22;277;50.074;8.436;2022-12-04T08:11:09;2.50;99.90
582;DHT22;277;50.074;8.436;2022-12-04T08:13:39;2.50;99.90
582;DHT22;277;50.074;8.436;2022-12-04T08:16:07;2.60;99.90
582;DHT22;277;50.074;8.436;2022-12-04T08:18:36;2.60;99.90
582;DHT22;277;50.074;8.436;2022-12-04T08:21:04;2.60;99.90
582;DHT22;277;50.074;8.436;2022-12-04T08:23:32;2.60;99.90
582;DHT22;277;50.074;8.436;2022-12-04T08:26:00;2.60;99.90
582;DHT22;277;50.074;8.436;2022-12-04T08:28:28;2.50;99.90
582;DHT22;277;50.074;8.436;2022-12-04T08:31:01;2.50;99.90
582;DHT22;277;50.074;8.436;2022-12-04T08:33:30;2.60;99.90
582;DHT22;277;50.074;8.436;2022-12-04T08:35:58;2.60;99.90
582;DHT22;277;50.074;8.436;2022-12-04T08:38:25;2.60;99.90
582;DHT22;277;50.074;8.436;2022-12-04T08:40:53;2.60;99.90
582;DHT22;277;50.074;8.436;2022-12-04T08:43:21;2.60;99.90
582;DHT22;277;50.074;8.436;2022-12-04T08:45:53;2.60;99.90
582;DHT22;277;50.074;8.436;2022-12-04T08:48:22;2.60;99.90
582;DHT22;277;50.074;8.436;2022-12-04T08:50:50;2.60;99.90
582;DHT22;277;50.074;8.436;2022-12-04T08:53:18;2.60;99.90
582;DHT22;277;50.074;8.436;2022-12-04T08:55:46;2.60;99.90
582;DHT22;277;50.074;8.436;2022-12-04T08:58:13;2.60;99.90
582;DHT22;277;50.074;8.436;2022-12-04T09:00:41;2.60;99.90
582;DHT22;277;50.074;8.436;2022-12-04T09:03:10;2.60;99.90
582;DHT22;277;50.074;8.436;2022-12-04T09:05:40;2.60;99.90
582;DHT22;277;50.074;8.436;2022-12-04T09:08:08;2.60;99.90
582;DHT22;277;50.074;8.436;2022-12-04T09:10:36;2.60;99.90
582;DHT22;277;50.074;8.436;2022-12-04T09:13:04;2.70;99.90
582;DHT22;277;50.074;8.436;2022-12-04T09:15:31;2.60;99.90
582;DHT22;277;50.074;8.436;2022-12-04T09:17:59;2.60;99.90
582;DHT22;277;50.074;8.436;2022-12-04T09:20:27;2.60;99.90
582;DHT22;277;50.074;8.436;2022-12-04T09:22:56;2.60;99.90
582;DHT22;277;50.074;8.436;2022-12-04T09:25:33;2.60;99.90
582;DHT22;277;50.074;8.436;2022-12-04T09:28:03;2.60;99.90
582;DHT22;277;50.074;8.436;2022-12-04T09:30:31;2.70;99.90
582;DHT22;277;50.074;8.436;2022-12-04T09:32:58;2.70;99.90
582;DHT22;277;50.074;8.436;2022-12-04T09:35:26;2.70;99.90
582;DHT22;277;50.074;8.436;2022-12-04T09:37:56;2.70;99.90
582;DHT22;277;50.074;8.436;2022-12-04T09:40:25;2.70;99.90
582;DHT22;277;50.074;8.436;2022-12-04T09:43:04;2.60;99.90
582;DHT22;277;50.074;8.436;2022-12-04T09:45:37;2.70;99.90
582;DHT22;277;50.074;8.436;2022-12-04T09:48:07;2.70;99.90
582;DHT22;277;50.074;8.436;2022-12-04T09:50:38;2.70;99.90
582;DHT22;277;50.074;8.436;2022-12-04T09:53:09;2.80;99.90
582;DHT22;277;50.074;8.436;2022-12-04T09:55:38;2.80;99.90
582;DHT22;277;50.074;8.436;2022-12-04T09:58:09;2.70;99.90
582;DHT22;277;50.074;8.436;2022-12-04T10:00:41;2.80;99.90
582;DHT22;277;50.074;8.436;2022-12-04T10:03:12;2.80;99.90
582;DHT22;277;50.074;8.436;2022-12-04T10:08:28;2.80;99.90
582;DHT22;277;50.074;8.436;2022-12-04T10:10:58;2.90;99.90
582;DHT22;277;50.074;8.436;2022-12-04T10:13:41;2.80;99.90
582;DHT22;277;50.074;8.436;2022-12-04T10:16:12;2.80;99.90
582;DHT22;277;50.074;8.436;2022-12-04T10:18:43;2.90;99.90
582;DHT22;277;50.074;8.436;2022-12-04T10:21:19;2.90;99.90
582;DHT22;277;50.074;8.436;2022-12-04T10:23:57;2.90;99.90
582;DHT22;277;50.074;8.436;2022-12-04T10:26:28;2.90;99.90
582;DHT22;277;50.074;8.436;2022-12-04T10:28:58;2.90;99.90
582;DHT22;277;50.074;8.436;2022-12-04T10:31:28;3.00;99.90
582;DHT22;277;50.074;8.436;2022-12-04T10:33:57;3.00;99.90
582;DHT22;277;50.074;8.436;2022-12-04T10:36:29;3.00;99.90
582;DHT22;277;50.074;8.436;2022-12-04T10:39:01;3.00;99.90
582;DHT22;277;50.074;8.436;2022-12-04T10:41:30;3.00;99.90
582;DHT22;277;50.074;8.436;2022-12-04T10:44:01;3.10;99.90
582;DHT22;277;50.074;8.436;2022-12-04T10:46:29;3.10;99.90
582;DHT22;277;50.074;8.436;2022-12-04T10:48:59;3.10;99.90
582;DHT22;277;50.074;8.436;2022-12-04T10:51:29;3.10;99.90
582;DHT22;277;50.074;8.436;2022-12-04T10:53:57;3.10;99.90
582;DHT22;277;50.074;8.436;2022-12-04T10:56:27;3.10;99.90
582;DHT22;277;50.074;8.436;2022-12-04T10:58:56;3.10;99.90
582;DHT22;277;50.074;8.436;2022-12-04T11:01:24;3.10;99.90
582;DHT22;277;50.074;8.436;2022-12-04T11:03:57;3.10;99.90
582;DHT22;277;50.074;8.436;2022-12-04T11:06:26;3.10;99.90
582;DHT22;277;50.074;8.436;2022-12-04T11:08:55;3.10;99.90
582;DHT22;277;50.074;8.436;2022-12-04T11:11:24;3.20;99.90
582;DHT22;277;50.074;8.436;2022-12-04T11:14:11;3.20;99.90
582;DHT22;277;50.074;8.436;2022-12-04T11:16:41;3.20;99.90
582;DHT22;277;50.074;8.436;2022-12-04T11:19:20;3.30;99.90
582;DHT22;277;50.074;8.436;2022-12-04T11:21:48;3.30;99.90
582;DHT22;277;50.074;8.436;2022-12-04T11:24:18;3.30;99.90
582;DHT22;277;50.074;8.436;2022-12-04T11:26:46;3.30;99.90
582;DHT22;277;50.074;8.436;2022-12-04T11:29:16;3.40;99.90
582;DHT22;277;50.074;8.436;2022-12-04T11:31:48;3.40;99.90
582;DHT22;277;50.074;8.436;2022-12-04T11:34:19;3.40;99.90
582;DHT22;277;50.074;8.436;2022-12-04T11:36:49;3.50;99.90
582;DHT22;277;50.074;8.436;2022-12-04T11:39:18;3.50;99.90
582;DHT22;277;50.074;8.436;2022-12-04T11:41:46;3.50;99.90
582;DHT22;277;50.074;8.436;2022-12-04T11:44:30;3.50;99.90
582;DHT22;277;50.074;8.436;2022-12-04T11:47:00;3.50;99.90
582;DHT22;277;50.074;8.436;2022-12-04T11:49:29;3.50;99.90
582;DHT22;277;50.074;8.436;2022-12-04T11:52:00;3.50;99.90
582;DHT22;277;50.074;8.436;2022-12-04T11:54:33;3.50;99.90
582;DHT22;277;50.074;8.436;2022-12-04T11:57:05;3.60;99.90
582;DHT22;277;50.074;8.436;2022-12-04T11:59:41;3.60;99.90
582;DHT22;277;50.074;8.436;2022-12-04T12:02:20;3.60;99.90
582;DHT22;277;50.074;8.436;2022-12-04T12:05:07;3.60;99.90
582;DHT22;277;50.074;8.436;2022-12-04T12:07:43;3.60;99.90
582;DHT22;277;50.074;8.436;2022-12-04T12:10:15;3.60;99.90
582;DHT22;277;50.074;8.436;2022-12-04T12:12:47;3.60;99.90
582;DHT22;277;50.074;8.436;2022-12-04T12:15:21;3.60;99.90
582;DHT22;277;50.074;8.436;2022-12-04T12:18:05;3.60;99.90
582;DHT22;277;50.074;8.436;2022-12-04T12:20:35;3.60;99.90
582;DHT22;277;50.074;8.436;2022-12-04T12:25:52;3.60;99.90
582;DHT22;277;50.074;8.436;2022-12-04T12:28:25;3.60;99.90
582;DHT22;277;50.074;8.436;2022-12-04T12:31:00;3.60;99.90
582;DHT22;277;50.074;8.436;2022-12-04T12:33:32;3.60;99.90
582;DHT22;277;50.074;8.436;2022-12-04T12:36:02;3.70;99.90
582;DHT22;277;50.074;8.436;2022-12-04T12:38:32;3.60;99.90
582;DHT22;277;50.074;8.436;2022-12-04T12:41:02;3.60;99.90
582;DHT22;277;50.074;8.436;2022-12-04T12:43:31;3.60;99.90
582;DHT22;277;50.074;8.436;2022-12-04T12:46:03;3.70;99.90
582;DHT22;277;50.074;8.436;2022-12-04T12:48:34;3.70;99.90
582;DHT22;277;50.074;8.436;2022-12-04T12:51:04;3.70;99.90
582;DHT22;277;50.074;8.436;2022-12-04T12:53:54;3.70;99.90
582;DHT22;277;50.074;8.436;2022-12-04T12:56:27;3.80;99.90
582;DHT22;277;50.074;8.436;2022-12-04T12:58:56;3.80;99.90
582;DHT22;277;50.074;8.436;2022-12-04T13:01:30;3.70;99.90
582;DHT22;277;50.074;8.436;2022-12-04T13:04:04;3.70;99.90
582;DHT22;277;50.074;8.436;2022-12-04T13:06:36;3.70;99.90
582;DHT22;277;50.074;8.436;2022-12-04T13:09:08;3.60;99.90
582;DHT22;277;50.074;8.436;2022-12-04T13:11:36;3.70;99.90
582;DHT22;277;50.074;8.436;2022-12-04T13:14:04;3.70;99.90
582;DHT22;277;50.074;8.436;2022-12-04T13:16:34;3.70;99.90
582;DHT22;277;50.074;8.436;2022-12-04T13:19:05;3.70;99.90
582;DHT22;277;50.074;8.436;2022-12-04T13:21:34;3.70;99.90
582;DHT22;277;50.074;8.436;2022-12-04T13:24:10;3.70;99.90
582;DHT22;277;50.074;8.436;2022-12-04T13:26:44;3.70;99.90
582;DHT22;277;50.074;8.436;2022-12-04T13:29:16;3.70;99.90
582;DHT22;277;50.074;8.436;2022-12-04T13:31:47;3.70;99.90
582;DHT22;277;50.074;8.436;2022-12-04T13:34:34;3.70;99.90
582;DHT22;277;50.074;8.436;2022-12-04T13:42:37;3.80;99.90
582;DHT22;277;50.074;8.436;2022-12-04T13:45:06;3.80;99.90
582;DHT22;277;50.074;8.436;2022-12-04T13:47:38;3.80;99.90
582;DHT22;277;50.074;8.436;2022-12-04T13:50:07;3.80;99.90
582;DHT22;277;50.074;8.436;2022-12-04T13:52:36;3.80;99.90
582;DHT22;277;50.074;8.436;2022-12-04T13:55:20;3.80;99.90
582;DHT22;277;50.074;8.436;2022-12-04T13:57:51;3.80;99.90
582;DHT22;277;50.074;8.436;2022-12-04T14:00:23;3.80;99.90
582;DHT22;277;50.074;8.436;2022-12-04T14:02:53;3.80;99.90
582;DHT22;277;50.074;8.436;2022-12-04T14:05:27;3.80;99.90
582;DHT22;277;50.074;8.436;2022-12-04T14:07:59;3.90;99.90
582;DHT22;277;50.074;8.436;2022-12-04T14:10:34;3.90;99.90
582;DHT22;277;50.074;8.436;2022-12-04T14:13:04;3.90;99.90
582;DHT22;277;50.074;8.436;2022-12-04T14:15:33;3.90;99.90
582;DHT22;277;50.074;8.436;2022-12-04T14:18:03;3.90;99.90
582;DHT22;277;50.074;8.436;2022-12-04T14:20:32;3.80;99.90
582;DHT22;277;50.074;8.436;2022-12-04T14:23:20;3.80;99.90
582;DHT22;277;50.074;8.436;2022-12-04T14:25:52;3.90;99.90
582;DHT22;277;50.074;8.436;2022-12-04T14:28:23;3.80;99.90
582;DHT22;277;50.074;8.436;2022-12-04T14:33:43;3.80;99.90
582;DHT22;277;50.074;8.436;2022-12-04T14:36:15;3.80;99.90
582;DHT22;277;50.074;8.436;2022-12-04T14:38:44;3.80;99.90
582;DHT22;277;50.074;8.436;2022-12-04T14:41:12;3.80;99.90
582;DHT22;277;50.074;8.436;2022-12-04T14:43:43;3.80;99.90
582;DHT22;277;50.074;8.436;2022-12-04T14:46:11;3.80;99.90
582;DHT22;277;50.074;8.436;2022-12-04T14:48:46;3.80;99.90
582;DHT22;277;50.074;8.436;2022-12-04T14:51:16;3.70;99.90
582;DHT22;277;50.074;8.436;2022-12-04T14:53:46;3.70;99.90
582;DHT22;277;50.074;8.436;2022-12-04T14:56:30;3.70;99.90
582;DHT22;277;50.074;8.436;2022-12-04T14:59:03;3.70;99.90
582;DHT22;277;50.074;8.436;2022-12-04T15:01:33;3.70;99.90
582;DHT22;277;50.074;8.436;2022-12-04T15:04:08;3.70;99.90
582;DHT22;277;50.074;8.436;2022-12-04T15:06:36;3.80;99.90
582;DHT22;277;50.074;8.436;2022-12-04T15:09:12;3.70;99.90
582;DHT22;277;50.074;8.436;2022-12-04T15:12:14;3.70;99.90
582;DHT22;277;50.074;8.436;2022-12-04T15:15:03;3.70;99.90
582;DHT22;277;50.074;8.436;2022-12-04T15:17:31;3.70;99.90
582;DHT22;277;50.074;8.436;2022-12-04T15:20:07;3.70;99.90
582;DHT22;277;50.074;8.436;2022-12-04T15:22:35;3.60;99.90
582;DHT22;277;50.074;8.436;2022-12-04T15:25:03;3.70;99.90
582;DHT22;277;50.074;8.436;2022-12-04T15:27:32;3.70;99.90
582;DHT22;277;50.074;8.436;2022-12-04T15:30:02;3.70;99.90
582;DHT22;277;50.074;8.436;2022-12-04T15:32:30;3.70;99.90
582;DHT22;277;50.074;8.436;2022-12-04T15:34:59;3.70;99.90
582;DHT22;277;50.074;8.436;2022-12-04T15:37:29;3.70;99.90
582;DHT22;277;50.074;8.436;2022-12-04T15:39:57;3.70;99.90
582;DHT22;277;50.074;8.436;2022-12-04T15:42:26;3.70;99.90
582;DHT22;277;50.074;8.436;2022-12-04T15:44:54;3.70;99.90
582;DHT22;277;50.074;8.436;2022-12-04T15:47:27;3.70;99.90
582;DHT22;277;50.074;8.436;2022-12-04T15:50:05;3.60;99.90
582;DHT22;277;50.074;8.436;2022-12-04T15:52:34;3.70;99.90
582;DHT22;277;50.074;8.436;2022-12-04T15:55:04;3.60;99.90
582;DHT22;277;50.074;8.436;2022-12-04T15:57:33;3.60;99.90
582;DHT22;277;50.074;8.436;2022-12-04T16:00:03;3.50;99.90
582;DHT22;277;50.074;8.436;2022-12-04T16:02:31;3.50;99.90
582;DHT22;277;50.074;8.436;2022-12-04T16:05:09;3.50;99.90
582;DHT22;277;50.074;8.436;2022-12-04T16:07:46;3.50;99.90
582;DHT22;277;50.074;8.436;2022-12-04T16:10:18;3.50;99.90
582;DHT22;277;50.074;8.436;2022-12-04T16:12:50;3.40;99.90
582;DHT22;277;50.074;8.436;2022-12-04T16:15:18;3.40;99.90
582;DHT22;277;50.074;8.436;2022-12-04T16:17:46;3.50;99.90
582;DHT22;277;50.074;8.436;2022-12-04T16:20:13;3.40;99.90
582;DHT22;277;50.074;8.436;2022-12-04T16:22:43;3.40;99.90
582;DHT22;277;50.074;8.436;2022-12-04T16:25:11;3.50;99.90
582;DHT22;277;50.074;8.436;2022-12-04T16:27:39;3.40;99.90
582;DHT22;277;50.074;8.436;2022-12-04T16:30:07;3.40;99.90
582;DHT22;277;50.074;8.436;2022-12-04T16:32:36;3.40;99.90
582;DHT22;277;50.074;8.436;2022-12-04T16:35:04;3.40;99.90
582;DHT22;277;50.074;8.436;2022-12-04T16:37:32;3.50;99.90
582;DHT22;277;50.074;8.436;2022-12-04T16:40:01;3.40;99.90
582;DHT22;277;50.074;8.436;2022-12-04T16:42:31;3.40;99.90
582;DHT22;277;50.074;8.436;2022-12-04T16:45:00;3.40;99.90
582;DHT22;277;50.074;8.436;2022-12-04T16:47:28;3.40;99.90
582;DHT22;277;50.074;8.436;2022-12-04T16:49:55;3.40;99.90
582;DHT22;277;50.074;8.436;2022-12-04T16:52:23;3.40;99.90
582;DHT22;277;50.074;8.436;2022-12-04T16:54:51;3.50;99.90
582;DHT22;277;50.074;8.436;2022-12-04T16:57:20;3.40;99.90
582;DHT22;277;50.074;8.436;2022-12-04T16:59:48;3.40;99.90
582;DHT22;277;50.074;8.436;2022-12-04T17:02:16;3.40;99.90
582;DHT22;277;50.074;8.436;2022-12-04T17:04:46;3.40;99.90
582;DHT22;277;50.074;8.436;2022-12-04T17:07:22;3.40;99.90
582;DHT22;277;50.074;8.436;2022-12-04T17:09:50;3.30;99.90
582;DHT22;277;50.074;8.436;2022-12-04T17:12:18;3.30;99.90
582;DHT22;277;50.074;8.436;2022-12-04T17:14:47;3.40;99.90
582;DHT22;277;50.074;8.436;2022-12-04T17:17:14;3.30;99.90
582;DHT22;277;50.074;8.436;2022-12-04T17:19:42;3.40;99.90
582;DHT22;277;50.074;8.436;2022-12-04T17:22:10;3.40;99.90
582;DHT22;277;50.074;8.436;2022-12-04T17:24:39;3.40;99.90
582;DHT22;277;50.074;8.436;2022-12-04T17:27:15;3.40;99.90